Time;durP1;ratioP1;P1;durP2;ratioP2;P2;SDS_P1;SDS_P2;PMS_P1;PMS_P2;Temp;Humidity;BMP_temperature;BMP_pressure;BME280_temperature;BME280_humidity;BME280_pressure;Samples;Min_cycle;Max_cycle;Signal;HPM_P1;HPM_P2
2023/09/16 00:02:05;;;;;;;0.20;0.20;;;;;;;21.11;50.90;101429.50;4775653;30;20464;-87
2023/09/16 00:04:30;;;;;;;0.20;0.20;;;;;;;21.02;51.14;101421.94;4777812;30;20495;-87
2023/09/16 00:06:56;;;;;;;0.20;0.20;;;;;;;20.70;52.36;101432.78;4774836;30;20881;-89
2023/09/16 00:09:25;;;;;;;0.30;0.30;;;;;;;20.23;53.52;101433.91;4774318;29;20444;-89
2023/09/16 00:11:52;;;;;;;0.20;0.20;;;;;;;20.37;53.26;101442.72;4775395;30;20828;-88
2023/09/16 00:14:21;;;;;;;0.28;0.20;;;;;;;20.52;52.66;101445.09;4770102;30;20957;-88
2023/09/16 00:16:53;;;;;;;0.20;0.20;;;;;;;20.60;52.42;101436.78;4762942;30;20913;-86
2023/09/16 00:19:19;;;;;;;0.20;0.20;;;;;;;20.55;52.91;101455.44;4774983;30;20461;-87
2023/09/16 00:21:45;;;;;;;0.22;0.22;;;;;;;20.51;52.93;101458.78;4773016;30;20445;-87
2023/09/16 00:24:11;;;;;;;0.20;0.20;;;;;;;20.76;52.20;101461.53;4778753;30;20414;-86
2023/09/16 00:26:39;;;;;;;0.20;0.20;;;;;;;20.80;51.79;101460.88;4777465;30;20430;-87
2023/09/16 00:29:05;;;;;;;0.40;0.40;;;;;;;20.74;51.87;101464.47;4774432;29;20977;-86
2023/09/16 00:31:31;;;;;;;0.20;0.20;;;;;;;20.57;52.56;101463.31;4771760;30;20428;-87
2023/09/16 00:33:56;;;;;;;0.30;0.30;;;;;;;20.56;52.44;101457.13;4776091;30;20409;-88
2023/09/16 00:36:22;;;;;;;0.20;0.20;;;;;;;20.51;52.31;101473.09;4775708;30;20427;-86
2023/09/16 00:38:48;;;;;;;0.22;0.22;;;;;;;20.44;52.35;101467.75;4779324;30;20524;-86
2023/09/16 00:41:14;;;;;;;0.10;0.10;;;;;;;20.51;52.33;101470.41;4771849;30;20778;-87
2023/09/16 00:43:39;;;;;;;0.20;0.20;;;;;;;20.49;52.44;101467.13;4774111;29;20420;-84
2023/09/16 00:46:05;;;;;;;0.10;0.10;;;;;;;20.65;52.19;101473.84;4769574;30;20424;-84
2023/09/16 00:48:30;;;;;;;0.27;0.20;;;;;;;20.77;51.79;101463.19;4774188;29;20888;-86
2023/09/16 00:50:59;;;;;;;0.20;0.20;;;;;;;20.64;52.50;101469.50;4783282;30;20455;-88
2023/09/16 00:53:28;;;;;;;0.15;0.15;;;;;;;20.54;52.73;101478.03;4768751;30;20851;-88
2023/09/16 00:55:53;;;;;;;0.30;0.30;;;;;;;20.34;53.23;101467.38;4783341;30;20473;-86
2023/09/16 00:58:19;;;;;;;1.10;0.90;;;;;;;20.25;53.73;101474.91;4783345;29;20412;-81
2023/09/16 01:00:46;;;;;;;0.20;0.20;;;;;;;20.14;53.77;101464.00;4783555;29;20401;-82
2023/09/16 01:03:17;;;;;;;0.22;0.22;;;;;;;20.13;54.09;101465.88;4782395;29;20471;-82
2023/09/16 01:05:47;;;;;;;0.17;0.17;;;;;;;20.09;54.16;101464.63;4782215;30;20420;-83
2023/09/16 01:08:15;;;;;;;0.30;0.30;;;;;;;20.17;53.85;101467.09;4782125;30;20424;-83
2023/09/16 01:10:43;;;;;;;0.20;0.20;;;;;;;20.16;53.85;101462.72;4783019;29;20450;-81
2023/09/16 01:13:09;;;;;;;0.10;0.10;;;;;;;20.17;53.98;101477.84;4783082;30;20465;-83
2023/09/16 01:15:55;;;;;;;0.30;0.30;;;;;;;20.20;53.76;101482.81;4782873;29;20396;-82
2023/09/16 01:18:31;;;;;;;0.23;0.23;;;;;;;20.22;53.75;101483.44;4783508;29;20408;-82
2023/09/16 01:20:59;;;;;;;0.30;0.30;;;;;;;20.24;53.37;101481.34;4783439;30;20491;-82
2023/09/16 01:23:25;;;;;;;0.10;0.10;;;;;;;20.34;53.39;101485.44;4782722;30;20416;-84
2023/09/16 01:25:50;;;;;;;0.17;0.17;;;;;;;20.44;53.10;101483.09;4780346;30;20924;-83
2023/09/16 01:28:16;;;;;;;0.20;0.20;;;;;;;20.57;52.72;101483.00;4780495;29;20625;-83
2023/09/16 01:30:50;;;;;;;0.13;0.13;;;;;;;20.56;52.65;101491.28;4782932;29;20416;-83
2023/09/16 01:33:44;;;;;;;0.40;0.20;;;;;;;20.46;53.05;101490.97;4783017;29;20992;-80
2023/09/16 01:36:13;;;;;;;0.10;0.10;;;;;;;20.48;53.13;101494.25;4783668;30;20421;-81
2023/09/16 01:38:43;;;;;;;0.20;0.20;;;;;;;20.44;53.45;101500.06;4783734;30;20405;-81
2023/09/16 01:41:10;;;;;;;0.20;0.20;;;;;;;20.34;53.84;101493.50;4784704;29;20431;-82
2023/09/16 01:43:37;;;;;;;0.30;0.30;;;;;;;20.35;53.81;101495.16;4784965;29;20404;-81
2023/09/16 01:46:03;;;;;;;0.20;0.20;;;;;;;20.18;54.52;101508.28;4783620;30;20766;-81
2023/09/16 01:48:33;;;;;;;0.30;0.30;;;;;;;20.20;54.32;101504.34;4783309;30;20419;-83
2023/09/16 01:50:59;;;;;;;0.20;0.20;;;;;;;20.30;54.16;101509.25;4784856;29;20466;-82
2023/09/16 01:53:24;;;;;;;0.10;0.10;;;;;;;20.25;54.26;101512.59;4795534;29;20408;-83
2023/09/16 01:55:53;;;;;;;0.30;0.30;;;;;;;20.23;54.48;101517.38;4784945;30;20509;-81
2023/09/16 01:58:19;;;;;;;0.10;0.10;;;;;;;20.29;54.25;101512.97;4783509;30;20423;-82
2023/09/16 02:00:50;;;;;;;0.10;0.10;;;;;;;20.32;54.31;101512.56;4785145;29;20404;-81
2023/09/16 02:03:18;;;;;;;0.13;0.13;;;;;;;20.37;54.23;101514.63;4784419;30;20419;-81
2023/09/16 02:05:43;;;;;;;0.20;0.20;;;;;;;20.36;54.19;101511.09;4784404;30;20408;-82
2023/09/16 02:08:09;;;;;;;0.80;0.60;;;;;;;20.34;54.23;101525.81;4784308;29;20504;-82
2023/09/16 02:10:34;;;;;;;0.20;0.20;;;;;;;20.38;54.29;101521.63;4783430;30;20904;-81
2023/09/16 02:13:02;;;;;;;0.10;0.10;;;;;;;20.43;54.22;101521.81;4784555;29;20404;-82
2023/09/16 02:15:30;;;;;;;0.20;0.20;;;;;;;20.54;53.81;101514.91;4783226;30;20418;-82
2023/09/16 02:17:57;;;;;;;0.10;0.10;;;;;;;20.69;53.30;101522.72;4784704;29;20473;-80
2023/09/16 02:20:23;;;;;;;0.20;0.20;;;;;;;20.70;53.28;101525.22;4783318;30;20507;-78
2023/09/16 02:22:54;;;;;;;0.13;0.13;;;;;;;20.68;53.34;101527.31;4783018;29;20523;-79
2023/09/16 02:25:21;;;;;;;0.10;0.10;;;;;;;20.66;53.56;101526.69;4784500;29;20811;-79
2023/09/16 02:27:50;;;;;;;0.20;0.20;;;;;;;20.75;53.37;101524.56;4784426;29;20408;-79
2023/09/16 02:30:16;;;;;;;0.10;0.10;;;;;;;20.78;53.20;101526.84;4784354;29;20788;-79
2023/09/16 02:32:41;;;;;;;0.13;0.13;;;;;;;20.78;53.29;101518.75;4784055;29;20404;-80
2023/09/16 02:35:07;;;;;;;0.30;0.30;;;;;;;20.69;53.71;101522.72;4784620;29;20946;-79
2023/09/16 02:37:37;;;;;;;0.20;0.20;;;;;;;20.58;53.94;101525.06;4782870;30;20409;-78
2023/09/16 02:40:08;;;;;;;0.30;0.30;;;;;;;20.54;54.18;101521.13;4786178;29;20415;-80
2023/09/16 02:42:33;;;;;;;0.13;0.13;;;;;;;20.41;54.59;101532.81;4787391;29;20432;-80
2023/09/16 02:44:59;;;;;;;0.20;0.20;;;;;;;20.43;54.78;101513.75;4787493;29;20408;-80
2023/09/16 02:47:25;;;;;;;0.20;0.20;;;;;;;20.37;55.00;101526.22;4786383;30;20965;-80
2023/09/16 02:49:50;;;;;;;0.10;0.10;;;;;;;20.24;55.30;101516.34;4787707;29;20833;-79
2023/09/16 02:52:18;;;;;;;0.20;0.20;;;;;;;20.36;55.03;101521.03;4787690;29;20473;-83
2023/09/16 02:54:49;;;;;;;0.50;0.50;;;;;;;20.46;54.66;101513.31;4787440;29;20392;-83
2023/09/16 02:57:20;;;;;;;0.20;0.20;;;;;;;20.52;54.46;101515.13;4787605;30;20798;-83
2023/09/16 02:59:47;;;;;;;0.20;0.20;;;;;;;20.51;54.66;101523.44;4792321;29;20402;-82
2023/09/16 03:02:15;;;;;;;0.28;0.28;;;;;;;20.59;54.47;101529.38;4792840;29;21002;-82
2023/09/16 03:04:50;;;;;;;1.05;0.30;;;;;;;20.68;54.06;101521.09;4788162;29;20881;-84
2023/09/16 03:07:20;;;;;;;0.20;0.20;;;;;;;20.55;54.54;101527.38;4786246;30;20417;-83
2023/09/16 03:09:48;;;;;;;0.60;0.40;;;;;;;20.38;55.14;101532.41;4786334;30;20416;-83
2023/09/16 03:12:14;;;;;;;0.17;0.17;;;;;;;20.38;55.10;101538.66;4787960;29;20452;-83
2023/09/16 03:14:50;;;;;;;0.30;0.30;;;;;;;20.43;55.12;101533.41;4770539;30;21364;-82
2023/09/16 03:17:18;;;;;;;0.10;0.10;;;;;;;20.53;54.87;101538.34;4771693;30;20513;-81
2023/09/16 03:19:43;;;;;;;0.17;0.17;;;;;;;20.53;54.86;101532.97;4786500;30;20413;-83
2023/09/16 03:22:10;;;;;;;0.20;0.20;;;;;;;20.50;54.82;101530.69;4787827;29;20432;-82
2023/09/16 03:24:43;;;;;;;0.10;0.10;;;;;;;20.61;54.71;101531.91;4786215;30;20512;-84
2023/09/16 03:27:08;;;;;;;0.20;0.20;;;;;;;20.72;54.33;101536.59;4787195;29;20400;-83
2023/09/16 03:29:34;;;;;;;0.20;0.20;;;;;;;20.77;54.10;101528.69;4787433;29;20412;-83
2023/09/16 03:31:59;;;;;;;0.20;0.20;;;;;;;20.85;53.85;101532.16;4786173;30;20427;-83
2023/09/16 03:34:25;;;;;;;0.20;0.20;;;;;;;20.89;54.02;101534.22;4787072;29;20416;-83
2023/09/16 03:36:53;;;;;;;0.20;0.20;;;;;;;20.74;54.35;101534.53;4787677;29;20411;-83
2023/09/16 03:39:19;;;;;;;0.10;0.10;;;;;;;20.78;54.22;101529.53;4786672;30;20432;-82
2023/09/16 03:41:45;;;;;;;0.10;0.10;;;;;;;20.77;54.50;101535.94;4787094;29;20464;-83
2023/09/16 03:44:12;;;;;;;1.10;0.37;;;;;;;20.81;54.19;101531.75;4785695;30;20474;-82
2023/09/16 03:46:41;;;;;;;0.50;0.50;;;;;;;20.88;53.96;101532.53;4786219;30;20435;-83
2023/09/16 03:49:08;;;;;;;0.20;0.20;;;;;;;20.81;54.30;101526.38;4785531;30;20444;-84
2023/09/16 03:51:36;;;;;;;0.30;0.20;;;;;;;20.78;54.45;101527.66;4785486;29;20536;-82
2023/09/16 03:54:02;;;;;;;0.20;0.20;;;;;;;20.77;54.55;101525.16;4786331;30;20626;-82
2023/09/16 03:56:33;;;;;;;0.15;0.15;;;;;;;20.77;54.58;101520.59;4795892;29;20474;-82
2023/09/16 03:58:59;;;;;;;0.05;0.05;;;;;;;20.81;54.43;101531.75;4794401;29;20396;-83
2023/09/16 04:01:27;;;;;;;0.23;0.23;;;;;;;20.62;55.12;101530.88;4785946;30;20427;-82
2023/09/16 04:03:54;;;;;;;0.22;0.22;;;;;;;20.55;55.43;101538.94;4786573;29;20436;-81
2023/09/16 04:06:20;;;;;;;0.40;0.30;;;;;;;20.60;55.35;101541.81;4786175;29;20396;-84
2023/09/16 04:08:46;;;;;;;0.20;0.20;;;;;;;20.62;55.37;101537.06;4785707;30;20422;-84
2023/09/16 04:11:11;;;;;;;0.30;0.30;;;;;;;20.66;55.22;101545.56;4785099;29;20505;-84
2023/09/16 04:13:37;;;;;;;0.10;0.10;;;;;;;20.55;55.51;101551.59;4785036;29;20495;-84
2023/09/16 04:16:03;;;;;;;0.90;0.40;;;;;;;20.53;55.64;101551.00;4787262;29;20432;-82
2023/09/16 04:18:29;;;;;;;0.60;0.50;;;;;;;20.68;55.18;101546.16;4785930;29;20442;-82
2023/09/16 04:20:56;;;;;;;0.22;0.22;;;;;;;20.92;54.58;101549.94;4784725;30;20408;-83
2023/09/16 04:23:22;;;;;;;0.10;0.10;;;;;;;21.03;54.22;101550.28;4784790;30;20409;-80
2023/09/16 04:26:00;;;;;;;0.20;0.20;;;;;;;21.09;54.02;101541.31;4784948;30;20427;-80
2023/09/16 04:28:29;;;;;;;0.10;0.10;;;;;;;21.15;53.93;101545.81;4786417;29;20410;-80
2023/09/16 04:30:56;;;;;;;0.10;0.10;;;;;;;21.12;54.14;101540.88;4784692;30;20409;-80
2023/09/16 04:33:24;;;;;;;0.20;0.20;;;;;;;21.10;54.35;101554.56;4786173;29;20413;-81
2023/09/16 04:35:51;;;;;;;0.10;0.10;;;;;;;21.12;54.70;101557.03;4784748;29;20758;-81
2023/09/16 04:38:20;;;;;;;0.10;0.10;;;;;;;21.18;54.49;101564.25;4785230;29;20935;-84
2023/09/16 04:40:47;;;;;;;0.10;0.10;;;;;;;21.20;54.45;101563.00;4786398;29;20487;-84
2023/09/16 04:43:13;;;;;;;0.90;0.50;;;;;;;21.24;54.40;101584.94;4785354;29;20447;-81
2023/09/16 04:45:44;;;;;;;0.10;0.10;;;;;;;21.27;54.58;101587.22;4784562;30;20413;-81
2023/09/16 04:48:13;;;;;;;0.20;0.20;;;;;;;21.20;54.58;101587.25;4784301;30;21196;-81
2023/09/16 04:50:48;;;;;;;0.10;0.10;;;;;;;21.23;54.47;101583.31;4769022;30;20445;-80
2023/09/16 04:53:16;;;;;;;0.40;0.40;;;;;;;21.27;54.56;101589.09;4778434;30;20579;-80
2023/09/16 04:55:41;;;;;;;0.10;0.10;;;;;;;21.23;54.65;101583.31;4782996;30;20415;-80
2023/09/16 04:58:07;;;;;;;0.30;0.30;;;;;;;21.12;54.87;101590.22;4782370;29;20410;-82
2023/09/16 05:00:35;;;;;;;0.40;0.40;;;;;;;21.06;55.36;101592.97;4783820;29;20420;-78
2023/09/16 05:03:02;;;;;;;0.20;0.20;;;;;;;21.05;55.48;101583.22;4782953;29;20439;-80
2023/09/16 05:05:27;;;;;;;0.20;0.20;;;;;;;21.06;55.30;101582.19;4783546;30;20470;-79
2023/09/16 05:07:53;;;;;;;0.10;0.10;;;;;;;21.11;55.33;101585.88;4783463;30;20905;-77
2023/09/16 05:10:18;;;;;;;0.20;0.20;;;;;;;21.09;55.59;101597.94;4783152;30;20423;-78
2023/09/16 05:12:44;;;;;;;0.20;0.20;;;;;;;21.06;55.79;101598.38;4784803;29;20777;-79
2023/09/16 05:15:10;;;;;;;0.25;0.25;;;;;;;20.94;56.49;101592.84;4783547;30;20538;-80
2023/09/16 05:17:37;;;;;;;0.20;0.20;;;;;;;21.01;56.51;101596.31;4783497;29;20416;-79
2023/09/16 05:20:03;;;;;;;0.10;0.10;;;;;;;21.16;56.17;101598.72;4784651;29;20408;-79
2023/09/16 05:22:29;;;;;;;0.20;0.20;;;;;;;21.28;55.78;101599.63;4783098;30;20467;-80
2023/09/16 05:24:55;;;;;;;0.20;0.20;;;;;;;21.37;55.36;101609.13;4783933;29;20492;-82
2023/09/16 05:27:23;;;;;;;0.13;0.13;;;;;;;21.43;55.20;101596.63;4768722;30;20914;-81
2023/09/16 05:29:52;;;;;;;0.20;0.20;;;;;;;21.43;55.56;101599.31;4779051;29;20939;-80
2023/09/16 05:32:23;;;;;;;0.10;0.10;;;;;;;21.31;55.94;101601.91;4799160;29;20920;-80
2023/09/16 05:34:53;;;;;;;0.20;0.20;;;;;;;21.38;55.66;101612.63;4784413;30;20905;-80
2023/09/16 05:37:18;;;;;;;0.20;0.20;;;;;;;21.49;55.61;101619.22;4785107;29;20499;-80
2023/09/16 05:39:46;;;;;;;0.10;0.10;;;;;;;21.50;55.54;101621.72;4784412;29;20503;-80
2023/09/16 05:42:12;;;;;;;1.13;0.85;;;;;;;21.58;55.32;101623.28;4783370;29;20505;-81
2023/09/16 05:44:38;;;;;;;0.50;0.50;;;;;;;21.53;55.34;101620.41;4784852;29;20810;-79
2023/09/16 05:47:03;;;;;;;0.25;0.25;;;;;;;21.55;55.58;101629.97;4798724;29;20495;-80
2023/09/16 05:49:29;;;;;;;0.20;0.20;;;;;;;21.57;55.43;101627.88;4784755;29;20895;-80
2023/09/16 05:51:55;;;;;;;0.10;0.10;;;;;;;21.53;55.47;101642.81;4799117;29;20503;-80
2023/09/16 05:54:21;;;;;;;0.10;0.10;;;;;;;21.56;55.38;101645.09;4785074;29;20933;-80
2023/09/16 05:56:46;;;;;;;0.37;0.37;;;;;;;21.57;55.54;101641.34;4798973;29;20401;-80
2023/09/16 05:59:14;;;;;;;0.73;0.73;;;;;;;21.53;55.54;101633.91;4799120;29;20411;-80
2023/09/16 06:01:39;;;;;;;0.20;0.20;;;;;;;21.47;55.95;101638.31;4799955;29;20775;-80
2023/09/16 06:04:05;;;;;;;0.13;0.13;;;;;;;21.32;56.39;101630.53;4785401;29;20395;-81
2023/09/16 06:06:32;;;;;;;0.40;0.40;;;;;;;21.33;56.67;101642.94;4784868;29;20443;-80
2023/09/16 06:08:57;;;;;;;0.40;0.40;;;;;;;21.30;56.54;101626.38;4798533;29;20415;-80
2023/09/16 06:11:26;;;;;;;0.40;0.40;;;;;;;21.28;56.99;101631.19;4798667;29;20404;-80
2023/09/16 06:13:53;;;;;;;0.68;0.60;;;;;;;21.23;57.25;101629.16;4787109;29;20424;-79
2023/09/16 06:16:20;;;;;;;0.30;0.30;;;;;;;21.31;57.33;101639.66;4788623;29;20411;-80
2023/09/16 06:18:45;;;;;;;0.30;0.30;;;;;;;21.31;57.60;101630.75;4787969;29;20483;-79
2023/09/16 06:21:11;;;;;;;0.20;0.20;;;;;;;21.31;57.63;101628.03;4785708;30;20504;-79
2023/09/16 06:23:37;;;;;;;0.20;0.20;;;;;;;21.28;57.80;101631.19;4787785;29;20412;-79
2023/09/16 06:26:02;;;;;;;0.25;0.25;;;;;;;21.19;58.60;101634.16;4801888;29;20772;-79
2023/09/16 06:28:28;;;;;;;0.60;0.60;;;;;;;21.06;59.03;101644.19;4786838;29;20484;-82
2023/09/16 06:30:53;;;;;;;0.30;0.30;;;;;;;21.12;59.22;101649.56;4801781;29;20427;-79
2023/09/16 06:33:19;;;;;;;0.40;0.30;;;;;;;21.03;59.38;101641.91;4786751;30;20789;-79
2023/09/16 06:35:45;;;;;;;0.77;0.40;;;;;;;21.16;59.26;101644.53;4787685;29;20427;-80
2023/09/16 06:38:10;;;;;;;0.25;0.25;;;;;;;21.32;59.39;101651.25;4788390;29;20785;-80
2023/09/16 06:40:37;;;;;;;0.40;0.40;;;;;;;21.36;59.64;101649.78;4786938;29;20448;-78
2023/09/16 06:43:03;;;;;;;2.10;1.10;;;;;;;21.41;59.48;101649.13;4763106;29;20827;-79
2023/09/16 06:45:28;;;;;;;0.20;0.20;;;;;;;21.47;59.67;101659.09;4787615;29;20908;-79
2023/09/16 06:47:57;;;;;;;0.20;0.20;;;;;;;21.48;59.53;101664.25;4788634;29;20396;-80
2023/09/16 06:50:22;;;;;;;0.20;0.20;;;;;;;21.43;59.66;101663.22;4801292;29;20471;-80
2023/09/16 06:52:48;;;;;;;0.50;0.40;;;;;;;21.50;59.84;101666.72;4787916;29;20440;-80
2023/09/16 06:55:13;;;;;;;0.30;0.30;;;;;;;21.56;59.60;101657.75;4801687;29;20448;-82
2023/09/16 06:57:39;;;;;;;0.10;0.10;;;;;;;21.97;58.98;101653.66;4786851;29;20420;-81
2023/09/16 07:00:05;;;;;;;0.47;0.47;;;;;;;21.87;58.76;101667.66;4786555;29;20495;-81
2023/09/16 07:02:32;;;;;;;0.47;0.37;;;;;;;21.84;59.16;101680.75;4801917;29;20456;-82
2023/09/16 07:04:57;;;;;;;0.60;0.47;;;;;;;22.04;58.65;101683.28;4787021;29;20538;-81
2023/09/16 07:07:25;;;;;;;0.30;0.30;;;;;;;22.32;58.10;101682.81;4801660;29;20440;-82
2023/09/16 07:09:57;;;;;;;0.13;0.13;;;;;;;22.37;57.71;101685.66;4786713;29;20404;-82
2023/09/16 07:12:24;;;;;;;0.17;0.17;;;;;;;22.37;57.84;101684.84;4787870;29;20412;-81
2023/09/16 07:14:50;;;;;;;0.50;0.50;;;;;;;22.58;57.37;101686.25;4786540;30;20913;-81
2023/09/16 07:17:16;;;;;;;0.25;0.25;;;;;;;22.55;57.15;101690.25;4788377;29;20419;-81
2023/09/16 07:19:42;;;;;;;0.20;0.20;;;;;;;22.45;57.43;101696.16;4801522;29;20412;-82
2023/09/16 07:22:08;;;;;;;0.30;0.30;;;;;;;22.82;57.01;101696.13;4787517;29;20473;-82
2023/09/16 07:24:33;;;;;;;0.30;0.30;;;;;;;22.82;56.56;101696.13;4800717;29;20416;-81
2023/09/16 07:26:59;;;;;;;0.20;0.20;;;;;;;22.65;57.20;101700.50;4787672;29;20549;-82
2023/09/16 07:29:24;;;;;;;0.40;0.40;;;;;;;22.57;57.37;101687.31;4787162;29;20429;-79
2023/09/16 07:31:50;;;;;;;0.60;0.60;;;;;;;22.64;57.88;101696.16;4787317;29;20412;-79
2023/09/16 07:34:16;;;;;;;0.20;0.20;;;;;;;22.65;57.34;101695.94;4801188;29;20416;-79
2023/09/16 07:36:42;;;;;;;0.20;0.20;;;;;;;22.65;57.50;101693.25;4787192;29;20843;-78
2023/09/16 07:39:08;;;;;;;0.30;0.30;;;;;;;22.71;57.39;101684.22;4800848;29;20405;-80
2023/09/16 07:41:34;;;;;;;0.20;0.20;;;;;;;22.94;57.14;101695.34;4787030;29;20464;-79
2023/09/16 07:43:59;;;;;;;0.30;0.30;;;;;;;23.17;56.45;101697.38;4785672;30;20416;-78
2023/09/16 07:46:25;;;;;;;0.15;0.15;;;;;;;23.37;56.23;101694.34;4800720;29;20420;-79
2023/09/16 07:48:56;;;;;;;0.20;0.20;;;;;;;22.99;57.03;101709.03;4786406;29;20455;-79
2023/09/16 07:51:21;;;;;;;0.20;0.20;;;;;;;22.69;57.58;101694.44;4787065;29;20771;-79
2023/09/16 07:53:47;;;;;;;0.30;0.30;;;;;;;22.75;57.36;101697.28;4786634;29;20417;-78
2023/09/16 07:56:16;;;;;;;0.40;0.40;;;;;;;22.80;57.42;101698.25;4800229;29;20409;-79
2023/09/16 07:58:42;;;;;;;0.25;0.25;;;;;;;22.90;57.40;101705.81;4761844;29;20522;-78
2023/09/16 08:01:07;;;;;;;0.22;0.22;;;;;;;22.82;57.39;101706.13;4786688;29;20405;-77
2023/09/16 08:03:37;;;;;;;0.30;0.30;;;;;;;22.83;57.49;101696.97;4789519;29;20469;-78
2023/09/16 08:06:03;;;;;;;0.80;0.50;;;;;;;22.87;57.54;101709.81;4785304;30;20423;-78
2023/09/16 08:08:29;;;;;;;0.30;0.30;;;;;;;22.84;57.38;101702.13;4785539;29;20436;-78
2023/09/16 08:10:55;;;;;;;0.30;0.30;;;;;;;22.72;57.90;101701.25;4784948;30;20868;-79
2023/09/16 08:13:22;;;;;;;0.47;0.47;;;;;;;22.79;57.92;101701.19;4785131;30;20419;-79
2023/09/16 08:15:48;;;;;;;0.30;0.30;;;;;;;22.89;57.82;101702.28;4786208;29;20488;-81
2023/09/16 08:18:17;;;;;;;0.85;0.85;;;;;;;22.88;58.06;101713.31;4784472;30;20401;-80
2023/09/16 08:20:42;;;;;;;0.50;0.50;;;;;;;22.95;58.31;101711.34;4785209;29;20408;-80
2023/09/16 08:23:09;;;;;;;0.40;0.40;;;;;;;22.97;57.84;101703.03;4785764;29;20432;-78
2023/09/16 08:25:35;;;;;;;0.20;0.20;;;;;;;23.16;57.58;101701.97;4784853;29;20468;-79
2023/09/16 08:28:01;;;;;;;0.60;0.60;;;;;;;23.04;57.73;101709.16;4784105;30;20420;-80
2023/09/16 08:30:26;;;;;;;0.47;0.30;;;;;;;23.06;57.60;101707.91;4783777;30;20995;-79
2023/09/16 08:32:52;;;;;;;0.32;0.32;;;;;;;23.14;57.35;101716.75;4782197;30;20424;-79
2023/09/16 08:35:17;;;;;;;0.30;0.30;;;;;;;23.21;57.01;101721.03;4784228;29;20793;-79
2023/09/16 08:37:43;;;;;;;0.20;0.20;;;;;;;23.24;57.09;101717.03;4783965;29;20440;-80
2023/09/16 08:40:09;;;;;;;0.70;0.70;;;;;;;23.38;56.66;101718.47;4784066;30;20416;-80
2023/09/16 08:42:44;;;;;;;0.37;0.37;;;;;;;23.40;56.89;101727.19;4784447;30;20920;-79
2023/09/16 08:45:20;;;;;;;0.20;0.20;;;;;;;23.51;56.64;101728.28;4769372;30;20424;-79
2023/09/16 08:47:54;;;;;;;0.38;0.38;;;;;;;23.56;56.47;101733.81;4783877;30;20420;-79
2023/09/16 08:50:22;;;;;;;0.22;0.22;;;;;;;23.60;56.16;101724.19;4785295;29;20508;-79
2023/09/16 08:52:53;;;;;;;0.73;0.73;;;;;;;23.51;56.58;101722.88;4783762;29;20416;-80
2023/09/16 08:55:20;;;;;;;0.20;0.20;;;;;;;23.57;56.72;101734.66;4784354;30;20486;-80
2023/09/16 08:57:56;;;;;;;0.32;0.32;;;;;;;23.79;56.63;101734.94;4785314;29;20440;-80
2023/09/16 09:00:22;;;;;;;0.13;0.13;;;;;;;23.91;56.25;101730.38;4784117;29;20492;-80
2023/09/16 09:02:50;;;;;;;0.20;0.20;;;;;;;24.00;55.96;101734.41;4785304;29;20487;-79
2023/09/16 09:05:18;;;;;;;0.45;0.45;;;;;;;24.02;55.72;101732.28;4769904;30;20412;-79
2023/09/16 09:07:44;;;;;;;0.30;0.30;;;;;;;24.02;55.71;101728.72;4785477;29;20827;-79
2023/09/16 09:10:13;;;;;;;1.30;0.63;;;;;;;24.13;55.41;101732.50;4785596;29;20912;-82
2023/09/16 09:12:41;;;;;;;0.68;0.50;;;;;;;24.22;55.04;101733.81;4785034;29;20895;-81
2023/09/16 09:15:12;;;;;;;0.65;0.65;;;;;;;24.19;54.88;101731.56;4769648;30;20420;-81
2023/09/16 09:17:41;;;;;;;0.60;0.60;;;;;;;24.35;54.65;101721.91;4769459;30;20427;-80
2023/09/16 09:20:10;;;;;;;0.30;0.30;;;;;;;24.50;54.29;101713.25;4769729;30;20424;-80
2023/09/16 09:22:38;;;;;;;0.30;0.30;;;;;;;24.75;53.92;101716.53;4783976;30;20431;-79
2023/09/16 09:25:04;;;;;;;1.80;1.10;;;;;;;24.91;53.27;101723.06;4769382;30;20412;-79
2023/09/16 09:27:29;;;;;;;0.30;0.30;;;;;;;25.02;52.78;101721.38;4783829;29;20405;-81
2023/09/16 09:29:55;;;;;;;0.43;0.43;;;;;;;25.19;52.53;101726.84;4783886;30;20404;-81
2023/09/16 09:32:22;;;;;;;0.10;0.10;;;;;;;25.31;52.02;101724.94;4783813;30;20797;-83
2023/09/16 09:34:47;;;;;;;0.38;0.38;;;;;;;25.43;51.67;101733.03;4784178;30;20536;-83
2023/09/16 09:37:19;;;;;;;0.50;0.50;;;;;;;25.46;51.47;101721.69;4784864;29;20838;-80
2023/09/16 09:39:45;;;;;;;0.20;0.20;;;;;;;25.53;51.29;101729.66;4783804;30;20440;-82
2023/09/16 09:42:20;;;;;;;0.20;0.20;;;;;;;25.47;50.97;101717.06;4783741;30;20424;-80
2023/09/16 09:44:46;;;;;;;0.10;0.10;;;;;;;25.44;50.93;101721.06;4784099;30;20416;-80
2023/09/16 09:47:15;;;;;;;0.50;0.30;;;;;;;25.40;50.79;101724.53;4785099;29;20412;-80
2023/09/16 09:49:41;;;;;;;0.10;0.10;;;;;;;25.52;50.58;101719.88;4790954;29;20459;-80
2023/09/16 09:52:08;;;;;;;0.10;0.10;;;;;;;25.63;50.15;101720.88;4789844;29;20932;-80
2023/09/16 09:54:34;;;;;;;0.20;0.20;;;;;;;25.56;50.08;101718.31;4790031;30;20435;-81
2023/09/16 09:57:03;;;;;;;0.40;0.40;;;;;;;25.69;49.92;101717.97;4791111;29;20900;-82
2023/09/16 09:59:29;;;;;;;0.30;0.30;;;;;;;25.61;49.59;101712.16;4789594;29;20483;-80
2023/09/16 10:01:55;;;;;;;0.20;0.20;;;;;;;25.73;49.45;101716.41;4790612;29;20584;-82
2023/09/16 10:04:20;;;;;;;0.50;0.40;;;;;;;25.75;49.42;101706.13;4791159;30;20419;-80
2023/09/16 10:06:46;;;;;;;0.10;0.10;;;;;;;25.83;49.11;101694.00;4792589;30;20463;-82
2023/09/16 10:09:12;;;;;;;0.20;0.20;;;;;;;26.07;49.07;101702.84;4791264;30;20477;-81
2023/09/16 10:11:38;;;;;;;0.10;0.10;;;;;;;26.37;48.86;101700.78;4791648;29;20402;-81
2023/09/16 10:14:03;;;;;;;0.20;0.20;;;;;;;26.44;48.41;101687.81;4789939;30;20487;-80
2023/09/16 10:16:30;;;;;;;0.10;0.10;;;;;;;26.41;48.57;101691.03;4790923;29;20880;-81
2023/09/16 10:18:57;;;;;;;0.13;0.13;;;;;;;26.49;48.31;101691.41;4791220;29;20888;-81
2023/09/16 10:21:24;;;;;;;0.17;0.17;;;;;;;26.41;47.96;101691.84;4759897;30;20408;-81
2023/09/16 10:23:51;;;;;;;0.13;0.13;;;;;;;26.35;47.79;101695.59;4790858;29;20491;-81
2023/09/16 10:26:16;;;;;;;0.20;0.20;;;;;;;26.52;48.08;101692.81;4774839;30;20506;-81
2023/09/16 10:28:46;;;;;;;0.20;0.20;;;;;;;26.62;48.11;101694.88;4789604;29;20516;-81
2023/09/16 10:31:12;;;;;;;0.70;0.40;;;;;;;26.59;47.92;101685.28;4789962;30;20499;-81
2023/09/16 10:33:41;;;;;;;0.20;0.20;;;;;;;26.59;47.84;101687.19;4790743;29;20571;-82
2023/09/16 10:36:09;;;;;;;0.57;0.47;;;;;;;26.49;47.79;101682.44;4791935;29;20400;-82
2023/09/16 10:38:38;;;;;;;0.20;0.20;;;;;;;26.55;47.74;101686.06;4776178;30;20794;-80
2023/09/16 10:41:05;;;;;;;0.30;0.30;;;;;;;26.47;47.67;101679.97;4792104;30;20423;-81
2023/09/16 10:43:32;;;;;;;0.20;0.20;;;;;;;26.59;47.89;101676.31;4790276;29;20806;-80
2023/09/16 10:45:58;;;;;;;0.40;0.35;;;;;;;26.72;47.59;101678.66;4789190;30;20401;-80
2023/09/16 10:48:24;;;;;;;0.20;0.20;;;;;;;26.77;47.58;101677.91;4790520;29;20410;-80
2023/09/16 10:50:55;;;;;;;0.25;0.25;;;;;;;26.77;47.44;101664.28;4789418;30;20427;-81
2023/09/16 10:53:36;;;;;;;0.10;0.10;;;;;;;26.85;47.62;101667.38;4789344;30;20449;-81
2023/09/16 10:56:16;;;;;;;0.20;0.20;;;;;;;26.91;47.26;101664.72;4790458;29;20419;-80
2023/09/16 10:58:50;;;;;;;0.30;0.30;;;;;;;26.88;47.61;101666.03;4789266;30;20408;-81
2023/09/16 11:01:26;;;;;;;0.28;0.28;;;;;;;26.69;47.71;101668.31;4785665;30;20876;-81
2023/09/16 11:04:01;;;;;;;0.30;0.30;;;;;;;26.71;47.60;101660.69;4786214;30;20946;-82
2023/09/16 11:06:28;;;;;;;0.20;0.20;;;;;;;26.81;47.49;101668.13;4787198;29;20828;-80
2023/09/16 11:08:53;;;;;;;0.20;0.20;;;;;;;26.83;47.46;101664.09;4787618;29;20408;-80
2023/09/16 11:11:21;;;;;;;0.90;0.70;;;;;;;26.91;47.39;101662.81;4787626;30;20408;-81
2023/09/16 11:13:48;;;;;;;0.20;0.20;;;;;;;27.01;47.21;101664.78;4786063;30;20416;-80
2023/09/16 11:16:14;;;;;;;0.30;0.30;;;;;;;26.79;46.73;101659.41;4771365;30;20412;-82
2023/09/16 11:18:42;;;;;;;0.30;0.30;;;;;;;26.79;46.71;101649.34;4787300;29;20408;-80
2023/09/16 11:21:09;;;;;;;0.17;0.17;;;;;;;26.71;46.91;101655.25;4787637;29;20422;-81
2023/09/16 11:23:36;;;;;;;0.38;0.38;;;;;;;26.74;47.23;101648.47;4771051;30;20437;-81
2023/09/16 11:26:03;;;;;;;0.30;0.30;;;;;;;26.76;47.03;101643.59;4771020;30;20412;-81